Aérodrome :
LOGIN :

S'inscrire | Disclaimer

   EN    FR    IT 

 










Légende :    VFR   VFR Marginal   IFR   IFR Intensif   IFR Très Intensif
Visi : 
Plafond : 
>= 8 km
>= 3000ft
5 à 8 km
1000 à 3000 ft
1500m à 5 km
500 à 1000 ft
800 à 1500m
200 à 500 ft
< 800m
< 200 ft
Symboles :   Orages  Brouillard  Fortes neiges  Fortes précipitations  Vent > 20 kt
SIGMETs :   Divers  Orages  Givrage  Turbulence  Onde Orograph.  Cendres Volcan.






- Altitude de l'aérodrome : 1234 ft
- Code IATA : LUX


ELLX - Luxembourg Findel

DERNIER METAR :
  • 231250Z 17007KT 130V190 9999 SCT012 BKN030 03/01 Q0994 NOSIG

METARs EXPIRÉS :
  • 231220Z 17007KT 140V200 9999 FEW007 BKN022 03/02 Q0994 NOSIG
  • 231150Z 16008KT 9999 FEW007 BKN030 04/02 Q0995 NOSIG
  • 231120Z 18007KT 140V210 9999 FEW006 SCT013 03/02 Q0995 NOSIG
  • 231050Z 20006KT 150V220 9999 SCT007 SCT037 03/02 Q0995 NOSIG
  • 231020Z 19008KT 170V230 9000 -DZRA SCT006 BKN035 03/02 Q0996 NOSIG

TAF TAF ELLX
Valide du 23 à 12h jusqu'au 24 à 18h UTC


231100Z 2312/2418 18008KT 9000 SCT005 BKN025
BECMG 2314/2316 11008KT 4500 -SNRA -SN BKN010
PROB40
TEMPO 2316/2321 2000 SN BKN002
BECMG 2322/2324 27012KT 9999 BKN016
TEMPO 2400/2409 3000 -SN BR BKN004
BECMG 2415/2418 18008KT
ATIS : +352 4798 27300
Météo : +352 4798 27010 / 27050



MET'MAP, la Météo Aéronautique d'un coup d'oeil ! - Copyright ORBIFLY Décembre 2007 - Disclaimer

ORBIFLY MET'MAP TEAM :

Programmation & Développement : Alexandra Zaïnal
Sur une idée originale de : Baudouin d'Aumeries
Assistance à la programmation : Marc-Olivier Méhu
Soutien technique & logistique : Manuel Goepfert

Contact : metmap@orbifly.com




SOURCES & CREDITS :

   NOAA